Time;durP1;ratioP1;P1;durP2;ratioP2;P2;SDS_P1;SDS_P2;PMS_P1;PMS_P2;Temp;Humidity;BMP_temperature;BMP_pressure;BME280_temperature;BME280_humidity;BME280_pressure;Samples;Min_cycle;Max_cycle;Signal;HPM_P1;HPM_P2
2023/09/03 00:01:43;;;;;;;4.47;4.05;;;17.70;99.90;;;;;;5056959;28;20009;-85
2023/09/03 00:04:09;;;;;;;4.10;3.70;;;17.70;99.90;;;;;;5039216;28;20029;-86
2023/09/03 00:06:35;;;;;;;5.57;3.97;;;17.70;99.90;;;;;;5038899;28;20016;-85
2023/09/03 00:09:00;;;;;;;4.75;4.28;;;17.70;99.90;;;;;;5038614;28;20166;-86
2023/09/03 00:11:26;;;;;;;5.28;4.30;;;17.70;99.90;;;;;;5055166;28;20468;-88
2023/09/03 00:13:52;;;;;;;6.60;4.57;;;17.60;99.90;;;;;;5054364;28;20108;-86
2023/09/03 00:16:17;;;;;;;5.53;4.80;;;17.60;99.90;;;;;;5055054;28;20025;-86
2023/09/03 00:18:43;;;;;;;6.18;4.43;;;17.60;99.90;;;;;;5055509;28;20028;-86
2023/09/03 00:21:09;;;;;;;5.10;4.50;;;17.60;99.90;;;;;;5038419;28;20027;-86
2023/09/03 00:23:34;;;;;;;4.75;4.03;;;17.50;99.90;;;;;;5050052;28;20047;-86
2023/09/03 00:26:01;;;;;;;4.40;4.00;;;17.50;99.90;;;;;;5035325;28;20051;-86
2023/09/03 00:28:27;;;;;;;5.75;4.30;;;17.50;99.90;;;;;;5019146;28;20480;-86
2023/09/03 00:31:04;;;;;;;6.18;4.40;;;17.50;99.90;;;;;;5018276;28;20025;-86
2023/09/03 00:33:30;;;;;;;5.57;4.30;;;17.50;99.90;;;;;;5039118;28;20021;-86
2023/09/03 00:35:55;;;;;;;6.10;4.38;;;17.40;99.90;;;;;;5058588;28;20021;-86
2023/09/03 00:38:21;;;;;;;7.57;4.60;;;17.40;99.90;;;;;;5076365;28;20394;-86
2023/09/03 00:40:47;;;;;;;5.18;4.32;;;17.40;99.90;;;;;;5041893;28;20036;-86
2023/09/03 00:43:13;;;;;;;5.68;4.70;;;17.40;99.90;;;;;;5041652;28;20017;-85
2023/09/03 00:45:42;;;;;;;4.85;3.97;;;17.30;99.90;;;;;;5041820;28;20047;-86
2023/09/03 00:48:09;;;;;;;5.00;4.18;;;17.30;99.90;;;;;;5076489;28;20052;-86
2023/09/03 00:50:37;;;;;;;5.43;4.30;;;17.30;99.90;;;;;;5076368;28;20021;-86
2023/09/03 00:53:06;;;;;;;5.97;4.72;;;17.30;99.90;;;;;;5076218;28;20032;-86
2023/09/03 00:55:32;;;;;;;4.57;4.07;;;17.20;99.90;;;;;;5074662;28;20023;-86
2023/09/03 00:57:59;;;;;;;6.40;4.30;;;17.20;99.90;;;;;;5074440;28;20016;-86
2023/09/03 01:00:25;;;;;;;7.30;4.93;;;17.20;99.90;;;;;;5041964;28;20142;-86
2023/09/03 01:02:53;;;;;;;5.18;4.60;;;17.20;99.90;;;;;;5056048;28;20025;-86
2023/09/03 01:05:19;;;;;;;4.70;4.22;;;17.20;99.90;;;;;;5021448;28;20021;-86
2023/09/03 01:07:46;;;;;;;5.93;4.47;;;17.10;99.90;;;;;;5037719;28;20024;-86
2023/09/03 01:10:12;;;;;;;4.75;4.15;;;17.10;99.90;;;;;;5005448;28;20052;-86
2023/09/03 01:12:50;;;;;;;7.18;4.28;;;17.10;99.90;;;;;;5042700;28;20510;-86
2023/09/03 01:15:27;;;;;;;4.97;4.15;;;17.10;99.90;;;;;;5057809;28;20406;-87
2023/09/03 01:18:02;;;;;;;5.30;4.50;;;17.10;99.90;;;;;;5075721;28;20095;-87
2023/09/03 01:20:34;;;;;;;5.15;4.45;;;17.00;99.90;;;;;;5070373;28;20032;-87
2023/09/03 01:23:18;;;;;;;6.38;4.70;;;17.10;99.90;;;;;;5038183;28;20053;-87
2023/09/03 01:26:02;;;;;;;5.82;4.50;;;17.00;99.90;;;;;;5037852;28;20086;-86
2023/09/03 01:28:39;;;;;;;5.28;4.75;;;17.00;99.90;;;;;;5038026;28;20104;-86
2023/09/03 01:31:15;;;;;;;6.00;4.80;;;17.00;99.90;;;;;;5056654;28;20029;-86
2023/09/03 01:33:43;;;;;;;5.70;4.75;;;17.00;99.90;;;;;;5056002;28;20056;-87
2023/09/03 01:36:12;;;;;;;6.82;4.30;;;17.00;99.90;;;;;;5022454;28;20017;-86
2023/09/03 01:38:39;;;;;;;5.85;4.90;;;17.00;99.90;;;;;;5054823;28;20012;-86
2023/09/03 01:41:06;;;;;;;5.38;4.28;;;17.00;99.90;;;;;;5099421;28;20013;-86
2023/09/03 01:43:32;;;;;;;7.95;4.80;;;17.00;99.90;;;;;;5065656;28;20025;-88
2023/09/03 01:46:09;;;;;;;6.28;4.80;;;17.00;99.90;;;;;;5082078;28;20017;-86
2023/09/03 01:48:37;;;;;;;7.70;5.22;;;17.00;99.90;;;;;;5074456;28;20044;-87
2023/09/03 01:51:34;;;;;;;6.05;4.57;;;17.00;99.90;;;;;;5041386;28;20021;-86
2023/09/03 01:54:13;;;;;;;6.10;5.13;;;17.00;99.90;;;;;;5038940;28;20020;-86
2023/09/03 01:56:44;;;;;;;6.13;5.05;;;17.00;99.90;;;;;;5047189;28;20143;-87
2023/09/03 01:59:21;;;;;;;5.63;4.88;;;16.90;99.90;;;;;;5057157;28;20020;-86
2023/09/03 02:01:49;;;;;;;6.28;4.95;;;17.00;99.90;;;;;;5057276;28;20016;-86
2023/09/03 02:04:14;;;;;;;5.75;4.72;;;16.90;99.90;;;;;;5056961;28;20044;-87
2023/09/03 02:06:45;;;;;;;6.13;4.90;;;17.00;99.90;;;;;;5057145;28;20017;-86
2023/09/03 02:09:11;;;;;;;;;;;16.90;99.90;;;;;;5040852;28;20127;-87
2023/09/03 02:11:37;;;;;;;6.78;4.85;;;16.90;99.90;;;;;;5039985;28;20050;-87
2023/09/03 02:14:02;;;;;;;5.68;4.90;;;16.90;99.90;;;;;;5040170;28;20028;-87
2023/09/03 02:16:28;;;;;;;6.43;4.80;;;16.90;99.90;;;;;;5023658;28;20025;-86
2023/09/03 02:18:53;;;;;;;5.20;4.38;;;16.90;99.90;;;;;;5040061;28;20025;-86
2023/09/03 02:21:19;;;;;;;5.68;4.70;;;16.90;99.90;;;;;;5055802;28;20016;-86
2023/09/03 02:23:45;;;;;;;6.30;3.90;;;16.80;99.90;;;;;;5039788;28;20017;-86
2023/09/03 02:26:11;;;;;;;5.00;4.45;;;16.80;99.90;;;;;;5023100;28;20072;-87
2023/09/03 02:28:37;;;;;;;6.07;3.85;;;16.80;99.90;;;;;;5056408;28;20029;-86
2023/09/03 02:31:02;;;;;;;5.72;4.38;;;16.80;99.90;;;;;;5036526;28;20040;-87
2023/09/03 02:33:29;;;;;;;4.45;3.83;;;16.70;99.90;;;;;;5030245;28;20020;-87
2023/09/03 02:35:54;;;;;;;5.63;4.28;;;16.70;99.90;;;;;;5030624;28;20066;-87
2023/09/03 02:38:20;;;;;;;4.97;3.80;;;16.70;99.90;;;;;;5030784;28;20029;-87
2023/09/03 02:40:46;;;;;;;4.40;3.97;;;16.70;99.90;;;;;;5067066;28;20535;-87
2023/09/03 02:43:12;;;;;;;6.80;4.40;;;16.70;99.90;;;;;;5050777;28;20025;-87
2023/09/03 02:45:38;;;;;;;4.53;3.92;;;16.60;99.90;;;;;;5039817;28;20308;-87
2023/09/03 02:48:06;;;;;;;3.90;3.40;;;16.60;99.90;;;;;;5067614;28;20512;-87
2023/09/03 02:50:34;;;;;;;4.68;3.60;;;16.60;99.90;;;;;;5035455;28;20024;-87
2023/09/03 02:52:59;;;;;;;5.38;4.13;;;16.60;99.90;;;;;;5037889;28;20106;-87
2023/09/03 02:55:25;;;;;;;4.63;3.95;;;16.60;99.90;;;;;;5034065;28;20095;-86
2023/09/03 02:57:50;;;;;;;6.03;4.90;;;16.50;99.90;;;;;;5038552;28;20123;-87
2023/09/03 03:00:18;;;;;;;5.45;4.78;;;16.50;99.90;;;;;;5022983;28;20422;-87
2023/09/03 03:02:44;;;;;;;7.97;5.13;;;16.50;99.90;;;;;;5017617;28;20021;-87
2023/09/03 03:05:10;;;;;;;7.05;5.57;;;16.50;99.90;;;;;;5036147;28;20033;-87
2023/09/03 03:07:38;;;;;;;7.18;5.47;;;16.50;99.90;;;;;;5053863;28;20077;-86
2023/09/03 03:10:04;;;;;;;7.50;6.13;;;16.50;99.90;;;;;;5054051;28;20055;-86
2023/09/03 03:12:29;;;;;;;6.47;5.82;;;16.50;99.90;;;;;;5055776;28;20024;-86
2023/09/03 03:14:55;;;;;;;6.70;6.00;;;16.50;99.90;;;;;;5055917;28;20025;-87
2023/09/03 03:17:23;;;;;;;9.18;5.63;;;16.40;99.90;;;;;;5039618;28;20035;-87
2023/09/03 03:19:50;;;;;;;7.25;6.07;;;16.40;99.90;;;;;;5056471;28;20027;-87
2023/09/03 03:22:15;;;;;;;8.57;6.13;;;16.40;99.90;;;;;;5056193;28;20112;-87
2023/09/03 03:24:41;;;;;;;7.72;5.75;;;16.40;99.90;;;;;;5036176;28;20075;-87
2023/09/03 03:27:07;;;;;;;6.38;5.70;;;16.40;99.90;;;;;;5054674;28;20446;-87
2023/09/03 03:29:32;;;;;;;6.43;5.82;;;16.40;99.90;;;;;;5040139;28;20025;-87
2023/09/03 03:32:01;;;;;;;8.10;5.63;;;16.40;99.90;;;;;;5078474;28;20032;-86
2023/09/03 03:34:27;;;;;;;8.55;6.60;;;16.40;99.90;;;;;;5096731;28;20033;-88
2023/09/03 03:36:56;;;;;;;8.90;6.00;;;16.40;99.90;;;;;;5045884;28;20027;-87
2023/09/03 03:39:21;;;;;;;6.25;5.63;;;16.30;99.90;;;;;;5054154;28;20070;-86
2023/09/03 03:41:47;;;;;;;6.93;6.00;;;16.30;99.90;;;;;;5053342;28;20021;-87
2023/09/03 03:44:13;;;;;;;7.03;5.32;;;16.30;99.90;;;;;;5036265;28;20441;-87
2023/09/03 03:46:38;;;;;;;6.35;5.70;;;16.30;99.90;;;;;;5053227;28;20017;-87
2023/09/03 03:49:04;;;;;;;8.30;6.30;;;16.20;99.90;;;;;;5003036;28;20021;-86
2023/09/03 03:51:30;;;;;;;9.95;6.10;;;16.20;99.90;;;;;;5010543;28;20447;-87
2023/09/03 03:53:58;;;;;;;7.53;6.35;;;16.20;99.90;;;;;;5054608;28;20039;-86
2023/09/03 03:56:23;;;;;;;6.90;6.15;;;16.20;99.90;;;;;;5055421;28;20020;-87
2023/09/03 03:58:49;;;;;;;7.65;5.70;;;16.20;99.90;;;;;;5038678;28;20066;-86
2023/09/03 04:01:18;;;;;;;7.78;5.93;;;16.10;99.90;;;;;;5022352;28;20024;-86
2023/09/03 04:03:45;;;;;;;6.93;5.60;;;16.10;99.90;;;;;;5055120;28;20008;-86
2023/09/03 04:06:11;;;;;;;7.10;6.38;;;16.10;99.90;;;;;;5039294;28;20036;-86
2023/09/03 04:08:38;;;;;;;7.85;6.45;;;16.10;99.90;;;;;;5042454;28;20024;-85
2023/09/03 04:11:08;;;;;;;7.47;6.07;;;16.00;99.90;;;;;;5059192;28;20023;-86
2023/09/03 04:13:35;;;;;;;8.93;5.65;;;16.00;99.90;;;;;;5058827;28;20020;-86
2023/09/03 04:16:05;;;;;;;6.28;5.65;;;15.90;99.90;;;;;;5039024;28;20021;-86
2023/09/03 04:18:31;;;;;;;5.95;5.35;;;16.00;99.90;;;;;;5056911;28;20100;-86
2023/09/03 04:20:57;;;;;;;5.68;5.10;;;16.00;99.90;;;;;;5038474;28;20104;-86
2023/09/03 04:23:26;;;;;;;7.47;5.63;;;15.90;99.90;;;;;;5053635;28;20126;-86
2023/09/03 04:25:53;;;;;;;8.20;6.20;;;15.90;99.90;;;;;;5058224;28;20041;-86
2023/09/03 04:28:21;;;;;;;7.40;6.03;;;15.90;99.90;;;;;;5048280;28;20023;-86
2023/09/03 04:30:46;;;;;;;6.82;6.10;;;15.90;99.90;;;;;;5035006;28;20025;-85
2023/09/03 04:33:12;;;;;;;6.88;6.18;;;15.90;99.90;;;;;;5058854;28;20016;-87
2023/09/03 04:35:38;;;;;;;6.88;5.60;;;15.80;99.90;;;;;;5041757;28;20032;-86
2023/09/03 04:38:05;;;;;;;9.50;6.30;;;15.80;99.90;;;;;;5058645;28;20016;-86
2023/09/03 04:40:37;;;;;;;6.90;6.20;;;15.80;99.90;;;;;;5058517;28;20053;-86
2023/09/03 04:43:03;;;;;;;6.47;5.57;;;15.80;99.90;;;;;;5041998;28;20082;-86
2023/09/03 04:45:30;;;;;;;6.03;5.38;;;15.70;99.90;;;;;;5041885;28;20364;-86
2023/09/03 04:47:56;;;;;;;7.15;5.25;;;15.70;99.90;;;;;;5041364;28;20024;-85
2023/09/03 04:50:22;;;;;;;6.05;5.45;;;15.70;99.90;;;;;;5025459;28;20017;-86
2023/09/03 04:52:49;;;;;;;5.78;5.13;;;15.70;99.90;;;;;;5058321;28;20333;-86
2023/09/03 04:55:15;;;;;;;6.57;5.93;;;15.70;99.90;;;;;;5076535;28;20162;-86
2023/09/03 04:57:41;;;;;;;6.85;5.85;;;15.70;99.90;;;;;;5040168;28;20440;-86
2023/09/03 05:00:07;;;;;;;8.20;5.97;;;15.70;99.90;;;;;;5056137;28;20029;-86
2023/09/03 05:02:34;;;;;;;6.47;5.55;;;15.70;99.90;;;;;;5076208;28;20460;-86
2023/09/03 05:05:02;;;;;;;7.95;6.60;;;15.60;99.90;;;;;;5076571;28;20035;-86
2023/09/03 05:07:28;;;;;;;8.00;5.85;;;15.70;99.90;;;;;;5058506;28;20074;-87
2023/09/03 05:09:55;;;;;;;6.93;5.80;;;15.60;99.90;;;;;;5058776;28;20025;-86
2023/09/03 05:12:21;;;;;;;6.63;6.03;;;15.60;99.90;;;;;;5035759;28;20025;-86
2023/09/03 05:14:48;;;;;;;6.60;5.90;;;15.70;99.90;;;;;;5062716;28;20031;-87
2023/09/03 05:17:14;;;;;;;7.10;5.32;;;15.70;99.90;;;;;;5062207;28;20048;-86
2023/09/03 05:19:40;;;;;;;6.53;5.57;;;15.60;99.90;;;;;;5062494;28;20092;-87
2023/09/03 05:22:05;;;;;;;7.10;6.15;;;15.60;99.90;;;;;;5047791;28;20021;-84
2023/09/03 05:24:32;;;;;;;8.95;6.40;;;15.70;99.90;;;;;;5065608;28;20119;-86
2023/09/03 05:26:58;;;;;;;8.65;6.00;;;15.70;99.90;;;;;;5057989;28;20047;-86
2023/09/03 05:29:24;;;;;;;7.18;6.47;;;15.70;99.90;;;;;;5041376;28;20021;-86
2023/09/03 05:31:49;;;;;;;7.90;6.13;;;15.70;99.90;;;;;;5057513;28;20051;-86
2023/09/03 05:34:15;;;;;;;6.57;5.80;;;15.70;99.90;;;;;;5076050;28;20028;-86
2023/09/03 05:36:40;;;;;;;7.90;5.97;;;15.70;99.90;;;;;;5057842;28;20023;-87
2023/09/03 05:39:06;;;;;;;6.18;5.57;;;15.70;99.90;;;;;;5041039;28;20028;-87
2023/09/03 05:41:32;;;;;;;5.95;5.35;;;15.70;99.90;;;;;;5020869;28;20354;-87
2023/09/03 05:43:58;;;;;;;6.57;5.88;;;15.70;99.90;;;;;;5039781;28;20025;-87
2023/09/03 05:46:24;;;;;;;6.43;5.65;;;15.80;99.90;;;;;;5055399;28;20020;-86
2023/09/03 05:48:52;;;;;;;6.43;5.18;;;15.80;99.90;;;;;;5028808;28;20033;-87
2023/09/03 05:51:18;;;;;;;6.53;5.30;;;15.80;99.90;;;;;;5074826;28;20452;-87
2023/09/03 05:53:44;;;;;;;7.10;6.03;;;15.90;99.90;;;;;;5057049;28;20027;-87
2023/09/03 05:56:11;;;;;;;6.90;5.57;;;15.90;99.90;;;;;;5057241;28;20020;-87
2023/09/03 05:58:38;;;;;;;6.55;5.32;;;16.00;99.90;;;;;;5056829;28;20020;-87
2023/09/03 06:01:05;;;;;;;6.03;5.20;;;15.90;99.90;;;;;;5074368;28;20387;-86
2023/09/03 06:03:31;;;;;;;6.55;5.90;;;16.00;99.90;;;;;;5057050;28;20510;-87
2023/09/03 06:06:03;;;;;;;7.07;6.05;;;16.00;99.90;;;;;;5056670;28;20023;-87
2023/09/03 06:08:29;;;;;;;7.57;6.10;;;16.00;99.90;;;;;;5056840;28;20027;-87
2023/09/03 06:10:56;;;;;;;6.95;5.88;;;16.10;99.90;;;;;;5056915;28;20048;-87
2023/09/03 06:13:28;;;;;;;8.32;6.78;;;16.20;99.90;;;;;;5029267;28;20445;-87
2023/09/03 06:15:55;;;;;;;8.57;6.97;;;16.20;99.90;;;;;;5036690;28;20113;-87
2023/09/03 06:18:24;;;;;;;7.45;6.60;;;16.20;99.90;;;;;;5036431;28;20078;-87
2023/09/03 06:20:50;;;;;;;7.28;6.57;;;16.30;99.90;;;;;;5036648;28;20104;-86
2023/09/03 06:23:21;;;;;;;8.52;7.47;;;16.30;99.90;;;;;;5026837;28;20067;-87
2023/09/03 06:25:50;;;;;;;8.07;7.00;;;16.40;99.90;;;;;;5056500;28;21141;-87
2023/09/03 06:28:19;;;;;;;9.88;7.80;;;16.40;99.90;;;;;;5056677;28;20166;-87
2023/09/03 06:30:44;;;;;;;9.00;7.70;;;16.50;99.90;;;;;;5040693;28;20421;-87
2023/09/03 06:33:11;;;;;;;9.00;8.10;;;16.50;99.90;;;;;;5020069;28;20110;-87
2023/09/03 06:35:37;;;;;;;8.80;7.95;;;16.60;99.90;;;;;;5062955;28;20364;-90
2023/09/03 06:38:03;;;;;;;7.88;7.07;;;16.60;99.90;;;;;;5073936;28;20027;-87
2023/09/03 06:40:31;;;;;;;10.73;9.13;;;16.70;99.90;;;;;;5074477;28;20021;-87
2023/09/03 06:42:57;;;;;;;8.68;7.78;;;16.70;99.90;;;;;;5042750;28;20017;-86
2023/09/03 06:45:23;;;;;;;9.98;8.30;;;16.80;99.90;;;;;;5047646;28;20105;-87
2023/09/03 06:47:48;;;;;;;9.20;8.30;;;16.80;99.90;;;;;;5028454;28;20021;-87
2023/09/03 06:50:14;;;;;;;13.18;9.98;;;16.90;99.90;;;;;;5047250;28;20043;-87
2023/09/03 06:52:40;;;;;;;10.68;9.57;;;16.90;99.90;;;;;;5061243;28;20397;-89
2023/09/03 06:55:06;;;;;;;11.27;9.98;;;17.00;99.90;;;;;;5034884;28;20043;-86
2023/09/03 06:57:32;;;;;;;11.20;10.13;;;17.10;99.90;;;;;;5041610;28;20016;-87
2023/09/03 06:59:58;;;;;;;11.27;10.07;;;17.10;99.90;;;;;;5018143;28;20046;-85
2023/09/03 07:02:25;;;;;;;13.88;10.93;;;17.10;99.90;;;;;;5096291;28;20032;-87
2023/09/03 07:04:51;;;;;;;10.95;9.70;;;17.20;99.90;;;;;;5066882;28;20021;-88
2023/09/03 07:07:17;;;;;;;10.95;9.88;;;17.30;99.90;;;;;;5059694;28;20089;-88
2023/09/03 07:09:42;;;;;;;10.00;9.00;;;17.30;99.90;;;;;;5058177;28;20013;-87
2023/09/03 07:12:08;;;;;;;12.02;10.05;;;17.40;99.90;;;;;;5081642;28;20025;-87
2023/09/03 07:14:35;;;;;;;9.93;8.35;;;17.40;99.90;;;;;;5039338;28;20028;-87
2023/09/03 07:17:02;;;;;;;9.32;8.32;;;17.50;99.90;;;;;;5073606;28;20020;-87
2023/09/03 07:19:28;;;;;;;9.90;8.48;;;17.50;99.90;;;;;;5056348;28;20150;-87
2023/09/03 07:21:54;;;;;;;10.60;8.88;;;17.60;99.90;;;;;;5056099;28;20021;-86
2023/09/03 07:24:23;;;;;;;10.52;8.57;;;17.70;99.90;;;;;;5035543;28;20079;-87
2023/09/03 07:26:49;;;;;;;9.15;8.30;;;17.70;99.90;;;;;;5018842;28;20041;-87
2023/09/03 07:29:15;;;;;;;9.35;8.43;;;17.80;99.90;;;;;;5019296;28;20524;-88
2023/09/03 07:31:43;;;;;;;10.25;9.23;;;17.80;99.90;;;;;;5035829;28;20025;-87
2023/09/03 07:34:11;;;;;;;11.13;9.05;;;17.80;99.90;;;;;;5035389;28;20372;-87
2023/09/03 07:36:40;;;;;;;9.57;8.52;;;17.80;99.90;;;;;;5055505;28;20460;-87
2023/09/03 07:39:09;;;;;;;10.95;8.63;;;17.80;99.90;;;;;;5035373;28;20492;-87
2023/09/03 07:41:35;;;;;;;9.07;8.05;;;17.90;99.90;;;;;;5018176;28;20021;-87
2023/09/03 07:44:01;;;;;;;9.63;8.13;;;17.90;99.90;;;;;;5047810;28;20021;-88
2023/09/03 07:46:27;;;;;;;9.00;7.43;;;18.00;99.90;;;;;;5052847;28;20025;-88
2023/09/03 07:48:53;;;;;;;8.73;7.63;;;18.00;99.90;;;;;;5059699;28;20012;-87
2023/09/03 07:51:22;;;;;;;11.57;8.95;;;18.00;99.90;;;;;;5059641;28;20020;-87
2023/09/03 07:53:48;;;;;;;8.02;7.30;;;18.10;99.90;;;;;;5077505;28;20020;-88
2023/09/03 07:56:17;;;;;;;8.68;7.78;;;18.10;99.90;;;;;;5042625;28;20467;-87
2023/09/03 07:58:44;;;;;;;7.93;7.18;;;18.20;99.90;;;;;;5059779;28;20115;-88
2023/09/03 08:01:15;;;;;;;7.10;6.38;;;18.30;99.90;;;;;;5059355;28;20036;-87
2023/09/03 08:03:41;;;;;;;9.40;7.28;;;18.30;99.90;;;;;;5077622;28;20390;-88
2023/09/03 08:06:07;;;;;;;8.98;7.55;;;18.40;99.90;;;;;;5077069;28;20053;-87
2023/09/03 08:08:34;;;;;;;8.80;7.47;;;18.40;99.90;;;;;;5058726;28;20028;-88
2023/09/03 08:11:00;;;;;;;7.80;6.88;;;18.40;99.90;;;;;;5058929;28;20017;-86
2023/09/03 08:13:26;;;;;;;8.02;7.22;;;18.40;99.90;;;;;;5076811;28;20024;-86
2023/09/03 08:15:52;;;;;;;8.43;7.43;;;18.50;99.90;;;;;;5028524;28;20036;-87
2023/09/03 08:18:18;;;;;;;8.57;7.22;;;18.50;99.90;;;;;;5039150;28;20032;-87
2023/09/03 08:20:44;;;;;;;8.15;7.15;;;18.50;99.90;;;;;;5022751;28;20123;-87
2023/09/03 08:23:12;;;;;;;8.68;7.10;;;18.60;99.90;;;;;;5050325;28;20031;-87
2023/09/03 08:25:39;;;;;;;6.93;6.22;;;18.60;99.90;;;;;;5059065;28;20069;-88
2023/09/03 08:28:05;;;;;;;5.97;5.45;;;18.70;99.90;;;;;;5044440;28;20037;-87
2023/09/03 08:30:31;;;;;;;8.82;6.00;;;18.70;99.90;;;;;;5038925;28;20123;-88
2023/09/03 08:32:56;;;;;;;7.35;6.15;;;18.80;99.90;;;;;;5038650;28;20104;-86
2023/09/03 08:35:22;;;;;;;8.25;6.25;;;18.80;99.90;;;;;;5048929;28;20032;-88
2023/09/03 08:37:48;;;;;;;8.35;7.10;;;18.90;99.90;;;;;;5042272;28;20457;-87
2023/09/03 08:40:14;;;;;;;8.73;7.05;;;18.90;99.90;;;;;;5039225;28;20025;-87
2023/09/03 08:42:43;;;;;;;10.57;7.63;;;19.00;99.90;;;;;;5046120;28;20158;-87
2023/09/03 08:45:12;;;;;;;8.60;7.05;;;19.00;99.90;;;;;;5060115;28;20111;-91
2023/09/03 08:47:44;;;;;;;7.40;6.70;;;19.10;99.90;;;;;;5067385;28;20018;-91
2023/09/03 08:50:10;;;;;;;10.02;7.45;;;19.10;99.90;;;;;;5041470;28;20009;-94
2023/09/03 08:52:37;;;;;;;7.18;6.47;;;19.10;99.90;;;;;;5057969;28;20161;-91
2023/09/03 08:55:05;;;;;;;6.75;5.63;;;19.20;99.90;;;;;;5063339;28;20033;-91
2023/09/03 08:57:34;;;;;;;6.60;5.90;;;19.20;99.90;;;;;;5063383;28;20036;-92
2023/09/03 09:00:00;;;;;;;7.65;6.88;;;19.30;99.90;;;;;;5063428;28;20015;-91
2023/09/03 09:02:27;;;;;;;7.38;6.28;;;19.40;99.90;;;;;;5063333;28;20024;-91
2023/09/03 09:04:53;;;;;;;6.65;6.05;;;19.40;99.90;;;;;;5061685;28;20035;-90
2023/09/03 09:07:19;;;;;;;6.25;5.13;;;19.50;99.90;;;;;;5057847;28;20107;-90
2023/09/03 09:09:51;;;;;;;6.53;5.20;;;19.60;99.90;;;;;;5042661;28;20025;-90
2023/09/03 09:12:42;;;;;;;8.43;6.38;;;19.60;99.90;;;;;;5067907;28;20029;-91
2023/09/03 09:15:08;;;;;;;6.15;5.00;;;19.70;99.90;;;;;;5039413;28;20067;-91
2023/09/03 09:17:41;;;;;;;6.07;5.20;;;19.80;99.90;;;;;;5040591;28;20016;-90
2023/09/03 09:20:10;;;;;;;5.55;4.80;;;19.90;99.90;;;;;;5058790;28;20065;-90
2023/09/03 09:22:46;;;;;;;6.28;4.70;;;19.90;99.90;;;;;;5076385;28;20114;-88
2023/09/03 09:25:19;;;;;;;4.47;4.07;;;20.00;99.90;;;;;;5049427;28;20023;-90
2023/09/03 09:27:45;;;;;;;7.00;5.07;;;20.00;99.90;;;;;;5038761;28;20052;-94
2023/09/03 09:30:22;;;;;;;5.35;4.13;;;20.10;99.90;;;;;;5038393;28;20024;-93
2023/09/03 09:33:01;;;;;;;4.55;4.05;;;20.10;99.90;;;;;;5022721;28;20049;-92
2023/09/03 09:35:27;;;;;;;4.00;3.45;;;20.20;99.90;;;;;;5042706;28;20122;-91
2023/09/03 09:37:52;;;;;;;3.92;3.42;;;20.20;99.90;;;;;;5036704;28;20452;-90
2023/09/03 09:40:29;;;;;;;4.13;3.40;;;20.20;99.90;;;;;;5033502;28;20056;-91
2023/09/03 09:42:57;;;;;;;5.55;4.05;;;20.30;99.90;;;;;;5051483;28;20036;-93
2023/09/03 09:45:23;;;;;;;5.03;3.90;;;20.30;99.90;;;;;;5058294;28;20104;-93
2023/09/03 09:48:15;;;;;;;4.90;4.07;;;20.40;99.90;;;;;;5041715;28;20460;-92
2023/09/03 09:50:46;;;;;;;4.85;3.38;;;20.40;99.90;;;;;;5071759;28;20032;-91
2023/09/03 09:53:26;;;;;;;4.05;3.65;;;20.50;99.90;;;;;;5049031;28;20017;-91
2023/09/03 09:55:59;;;;;;;4.00;3.38;;;20.50;99.90;;;;;;5020730;28;20033;-76
2023/09/03 09:58:38;;;;;;;3.15;2.63;;;20.60;99.90;;;;;;5051917;28;20430;-81
2023/09/03 10:01:08;;;;;;;3.58;2.65;;;20.60;99.90;;;;;;5040139;28;20031;-86
2023/09/03 10:03:45;;;;;;;3.58;2.53;;;20.60;99.90;;;;;;5055892;28;20059;-81
2023/09/03 10:06:16;;;;;;;4.60;2.95;;;20.60;99.90;;;;;;5056728;28;20044;-81
2023/09/03 10:08:44;;;;;;;5.75;3.40;;;20.70;99.90;;;;;;5056714;28;20013;-80
2023/09/03 10:11:10;;;;;;;4.63;3.55;;;20.70;99.90;;;;;;5040359;28;20024;-89
2023/09/03 10:13:44;;;;;;;4.55;3.05;;;20.70;99.90;;;;;;5039678;28;20025;-81
2023/09/03 10:16:19;;;;;;;4.05;3.65;;;20.80;99.90;;;;;;5056750;28;20024;-81
2023/09/03 10:18:49;;;;;;;3.47;3.17;;;20.80;99.90;;;;;;5041431;28;20025;-81
2023/09/03 10:21:25;;;;;;;3.58;3.20;;;20.90;99.90;;;;;;5049341;28;20017;-84
2023/09/03 10:23:52;;;;;;;3.58;3.00;;;20.90;99.90;;;;;;5019914;28;20373;-81
2023/09/03 10:26:41;;;;;;;3.13;2.80;;;21.00;99.90;;;;;;5032636;28;20041;-81
2023/09/03 10:29:11;;;;;;;4.95;3.17;;;21.00;99.90;;;;;;5034686;28;20018;-81
2023/09/03 10:31:39;;;;;;;2.75;2.30;;;21.00;99.90;;;;;;5033091;28;20117;-81
2023/09/03 10:34:13;;;;;;;3.35;1.90;;;21.10;99.90;;;;;;5000508;28;20025;-81
2023/09/03 10:37:05;;;;;;;2.55;2.20;;;21.10;99.90;;;;;;5033162;28;20115;-81
2023/09/03 10:39:31;;;;;;;3.10;2.33;;;21.10;99.90;;;;;;5033282;28;20032;-80
2023/09/03 10:42:15;;;;;;;2.17;1.98;;;21.10;99.90;;;;;;5033775;28;20025;-81
2023/09/03 10:44:44;;;;;;;4.00;2.85;;;21.20;99.90;;;;;;5035429;28;20026;-81
2023/09/03 10:47:13;;;;;;;2.78;2.30;;;21.20;99.90;;;;;;5025491;28;20017;-81
2023/09/03 10:49:53;;;;;;;1.88;1.60;;;21.20;99.90;;;;;;5076003;28;20079;-81
2023/09/03 10:52:28;;;;;;;1.92;1.55;;;21.20;99.90;;;;;;5076954;28;20055;-80
2023/09/03 10:55:23;;;;;;;2.63;1.80;;;21.30;99.90;;;;;;5076720;28;20027;-81
2023/09/03 10:58:16;;;;;;;3.10;1.70;;;21.30;99.90;;;;;;5076384;28;20017;-77
2023/09/03 11:01:15;;;;;;;2.58;1.23;;;21.40;99.90;;;;;;5058448;28;20033;-77
2023/09/03 11:03:49;;;;;;;1.30;1.20;;;21.40;99.90;;;;;;5035717;28;20030;-77
2023/09/03 11:06:19;;;;;;;2.85;1.58;;;21.50;99.90;;;;;;5033716;28;20361;-78
2023/09/03 11:08:45;;;;;;;;;;;21.50;99.90;;;;;;5045009;28;20445;-78
2023/09/03 11:11:19;;;;;;;3.30;1.70;;;21.50;99.90;;;;;;5053468;28;19927;-78
2023/09/03 11:13:52;;;;;;;2.70;1.95;;;21.50;99.90;;;;;;5052205;28;20536;-78
2023/09/03 11:16:32;;;;;;;2.17;1.98;;;21.60;99.90;;;;;;5051657;28;20031;-79
2023/09/03 11:18:58;;;;;;;2.70;2.13;;;21.60;99.90;;;;;;5052633;28;20025;-79
2023/09/03 11:21:28;;;;;;;2.22;2.03;;;21.70;99.90;;;;;;5050941;28;20017;-83
2023/09/03 11:24:03;;;;;;;2.17;1.73;;;21.70;99.90;;;;;;5016074;28;20026;-83
2023/09/03 11:26:33;;;;;;;2.70;1.98;;;21.70;99.90;;;;;;5033860;28;20045;-83
2023/09/03 11:29:01;;;;;;;2.33;1.85;;;21.80;99.90;;;;;;5032679;28;20388;-83
2023/09/03 11:31:27;;;;;;;2.50;1.90;;;21.80;99.90;;;;;;5031659;28;20038;-83
2023/09/03 11:33:55;;;;;;;2.53;2.10;;;21.80;99.90;;;;;;5032120;28;20021;-82
2023/09/03 11:36:27;;;;;;;2.92;2.20;;;21.80;99.90;;;;;;5040845;28;20063;-82
2023/09/03 11:38:55;;;;;;;2.20;2.00;;;21.80;99.90;;;;;;5036431;28;20025;-82
2023/09/03 11:41:21;;;;;;;3.78;1.80;;;21.90;99.90;;;;;;5052093;28;20459;-83
2023/09/03 11:43:47;;;;;;;1.88;1.70;;;21.90;99.90;;;;;;5051637;28;20029;-82
2023/09/03 11:46:15;;;;;;;2.05;1.85;;;22.00;99.90;;;;;;5052103;28;20048;-83
2023/09/03 11:48:53;;;;;;;2.67;1.80;;;22.00;99.90;;;;;;5051551;28;20040;-83
2023/09/03 11:51:26;;;;;;;1.52;1.42;;;22.00;99.90;;;;;;5037055;28;20445;-83
2023/09/03 11:53:52;;;;;;;2.00;1.48;;;22.10;99.90;;;;;;5042757;28;20033;-83
2023/09/03 11:56:20;;;;;;;3.45;1.92;;;22.10;99.80;;;;;;5040407;28;20029;-83
2023/09/03 11:58:55;;;;;;;1.70;1.48;;;22.10;99.10;;;;;;5048978;28;20017;-82
2023/09/03 12:01:23;;;;;;;2.92;1.98;;;22.20;99.00;;;;;;5033070;28;20017;-82
2023/09/03 12:03:49;;;;;;;2.78;1.60;;;22.30;98.70;;;;;;5015913;28;20442;-83
2023/09/03 12:06:18;;;;;;;2.30;1.80;;;22.30;98.40;;;;;;5015832;28;20014;-83
2023/09/03 12:08:43;;;;;;;2.47;1.50;;;22.30;97.80;;;;;;5015874;28;20179;-83
2023/09/03 12:11:10;;;;;;;2.30;1.30;;;22.30;98.10;;;;;;5050942;28;20509;-83
2023/09/03 12:13:39;;;;;;;3.40;1.60;;;22.40;98.20;;;;;;5034918;28;20353;-83
2023/09/03 12:16:09;;;;;;;1.75;1.50;;;22.50;98.00;;;;;;5051675;28;20028;-83
2023/09/03 12:18:36;;;;;;;1.90;1.25;;;22.50;97.60;;;;;;5038860;28;20109;-84
2023/09/03 12:21:03;;;;;;;1.58;1.48;;;22.50;97.60;;;;;;5032573;28;20040;-82
2023/09/03 12:23:29;;;;;;;1.55;1.40;;;22.50;97.80;;;;;;5031738;28;20021;-83
2023/09/03 12:25:55;;;;;;;1.10;1.00;;;22.60;97.80;;;;;;5037521;28;20037;-84
2023/09/03 12:28:40;;;;;;;1.40;1.30;;;22.60;97.70;;;;;;5020987;28;20306;-83
2023/09/03 12:31:06;;;;;;;1.63;1.33;;;22.60;97.00;;;;;;5006550;28;20028;-83
2023/09/03 12:33:32;;;;;;;2.38;1.20;;;22.60;96.60;;;;;;5057813;28;20024;-83
2023/09/03 12:36:08;;;;;;;1.15;1.00;;;22.60;96.40;;;;;;5058601;28;20032;-84
2023/09/03 12:38:58;;;;;;;1.52;1.40;;;22.60;96.60;;;;;;5058748;28;20057;-84
2023/09/03 12:41:25;;;;;;;1.53;1.27;;;22.60;96.80;;;;;;5059492;28;20016;-82
2023/09/03 12:43:52;;;;;;;2.17;1.13;;;22.70;96.70;;;;;;5026381;28;20019;-83
2023/09/03 12:46:17;;;;;;;2.05;1.50;;;22.70;96.90;;;;;;5029039;28;20047;-82
2023/09/03 12:48:47;;;;;;;1.80;1.30;;;22.70;96.50;;;;;;5082548;28;20072;-84
2023/09/03 12:51:15;;;;;;;1.45;1.35;;;22.70;96.30;;;;;;5066810;28;20029;-82
2023/09/03 12:53:42;;;;;;;1.83;1.30;;;22.70;96.10;;;;;;5082490;28;20031;-84